Terminal Aerodrome Forecast
Issued by NWS

Home | Current Version | Previous Version | Text Only | Print | Product List | Glossary On
Versions: 1 2 3 4 5 6 7 8 9 10 11 12 13 14 15 16 17 18 19 20 21 22
539
FTUS46 KSEW 231726
TAFHQM
TAF
KHQM 231726Z 2318/2418 27010KT P6SM FEW022 BKN035
     FM232000 25012KT P6SM FEW040
     FM240300 29007KT P6SM SKC
     FM240600 VRB03KT P6SM FEW012
     FM241000 VRB03KT 5SM BR OVC007=

USA.gov is the U.S. government's official web portal to all federal, state and local government web resources and services.